createdAt,value
2018-07-03T00:00:14.119Z,1.60
2018-07-03T00:02:42.498Z,1.53
2018-07-03T00:05:10.902Z,1.83
2018-07-03T00:07:39.284Z,1.80
2018-07-03T00:10:09.724Z,1.80
2018-07-03T00:12:38.419Z,1.60
2018-07-03T00:15:07.326Z,2.07
2018-07-03T00:17:35.801Z,1.90
2018-07-03T00:20:04.894Z,1.90
2018-07-03T00:22:33.271Z,1.30
2018-07-03T00:25:01.639Z,1.77
2018-07-03T00:27:30.035Z,1.80
2018-07-03T00:29:58.405Z,1.80
2018-07-03T00:32:26.794Z,1.67
2018-07-03T00:34:55.168Z,1.80
2018-07-03T00:37:23.567Z,1.70
2018-07-03T00:39:51.930Z,1.90
2018-07-03T00:42:20.325Z,1.80
2018-07-03T00:44:48.694Z,1.97
2018-07-03T00:47:17.087Z,2.10
2018-07-03T00:49:45.452Z,1.87
2018-07-03T00:52:13.855Z,2.23
2018-07-03T00:54:42.234Z,2.00
2018-07-03T00:57:10.622Z,2.27
2018-07-03T00:59:50.290Z,1.73
2018-07-03T01:02:18.699Z,1.80
2018-07-03T01:04:47.063Z,1.90
2018-07-03T01:07:15.456Z,1.63
2018-07-03T01:09:43.825Z,1.70
2018-07-03T01:12:12.209Z,2.00
2018-07-03T01:14:40.583Z,2.40
2018-07-03T01:17:09.002Z,1.73
2018-07-03T01:19:37.382Z,1.90
2018-07-03T01:22:05.891Z,1.60
2018-07-03T01:24:34.259Z,1.67
2018-07-03T01:27:02.658Z,1.30
2018-07-03T01:29:31.074Z,1.80
2018-07-03T01:31:59.459Z,1.80
2018-07-03T01:34:27.853Z,1.90
2018-07-03T01:36:56.242Z,2.27
2018-07-03T01:39:24.799Z,1.83
2018-07-03T01:41:53.374Z,2.10
2018-07-03T01:44:21.742Z,1.93
2018-07-03T01:46:50.469Z,1.93
2018-07-03T01:49:18.835Z,1.77
2018-07-03T01:51:47.218Z,1.80
2018-07-03T01:54:15.582Z,1.77
2018-07-03T01:56:44.096Z,1.53
2018-07-03T01:59:12.483Z,1.60
2018-07-03T02:01:41.466Z,1.90
2018-07-03T02:04:10.026Z,2.10
2018-07-03T02:06:38.530Z,2.00
2018-07-03T02:09:10.054Z,1.80
2018-07-03T02:11:38.443Z,1.90
2018-07-03T02:14:07.202Z,2.03
2018-07-03T02:16:35.611Z,2.20
2018-07-03T02:19:04.404Z,2.40
2018-07-03T02:21:33.089Z,1.60
2018-07-03T02:24:01.471Z,2.20
2018-07-03T02:26:29.846Z,1.90
2018-07-03T02:28:58.229Z,1.90
2018-07-03T02:31:26.590Z,2.27
2018-07-03T02:33:55.110Z,2.37
2018-07-03T02:36:23.866Z,1.90
2018-07-03T02:38:52.262Z,2.47
2018-07-03T02:41:20.834Z,2.40
2018-07-03T02:43:49.237Z,2.37
2018-07-03T02:46:17.610Z,2.40
2018-07-03T02:48:46.010Z,2.50
2018-07-03T02:51:14.454Z,2.93
2018-07-03T02:53:42.876Z,2.70
2018-07-03T02:56:11.254Z,2.40
2018-07-03T02:58:39.654Z,2.43
2018-07-03T03:01:08.023Z,2.43
2018-07-03T03:03:36.583Z,3.03
2018-07-03T03:06:04.959Z,1.97
2018-07-03T03:08:33.356Z,3.53
2018-07-03T03:11:01.728Z,4.37
2018-07-03T03:13:30.138Z,3.80
2018-07-03T03:15:58.519Z,2.77
2018-07-03T03:18:26.886Z,4.20
2018-07-03T03:20:55.278Z,3.37
2018-07-03T03:23:23.638Z,2.37
2018-07-03T03:25:52.033Z,3.67
2018-07-03T03:28:20.404Z,3.40
2018-07-03T03:30:48.793Z,3.73
2018-07-03T03:33:17.174Z,3.57
2018-07-03T03:35:45.594Z,4.00
2018-07-03T03:38:13.978Z,2.90
2018-07-03T03:40:42.371Z,2.90
2018-07-03T03:43:10.738Z,2.80
2018-07-03T03:45:39.122Z,2.60
2018-07-03T03:48:07.594Z,2.70
2018-07-03T03:50:35.986Z,3.13
2018-07-03T03:53:04.359Z,2.83
2018-07-03T03:55:32.765Z,2.60
2018-07-03T03:58:01.138Z,2.93
2018-07-03T04:00:29.527Z,2.50
2018-07-03T04:02:57.906Z,2.50
2018-07-03T04:05:26.319Z,2.43
2018-07-03T04:07:55.055Z,2.63
2018-07-03T04:10:23.442Z,2.07
2018-07-03T04:12:51.807Z,2.20
2018-07-03T04:15:20.262Z,2.17
2018-07-03T04:17:48.630Z,2.30
2018-07-03T04:20:17.028Z,2.13
2018-07-03T04:22:45.401Z,2.03
2018-07-03T04:25:13.794Z,1.80
2018-07-03T04:27:42.163Z,2.30
2018-07-03T04:30:10.702Z,1.90
2018-07-03T04:32:39.183Z,2.03
2018-07-03T04:35:07.617Z,2.20
2018-07-03T04:37:35.991Z,1.60
2018-07-03T04:40:04.390Z,2.33
2018-07-03T04:42:33.006Z,2.13
2018-07-03T04:45:01.429Z,2.13
2018-07-03T04:47:29.951Z,1.60
2018-07-03T04:49:58.318Z,1.57
2018-07-03T04:52:26.706Z,2.07
2018-07-03T04:54:55.170Z,1.60
2018-07-03T04:57:23.550Z,1.67
2018-07-03T04:59:51.914Z,1.40
2018-07-03T05:02:20.305Z,1.87
2018-07-03T05:04:48.689Z,1.90
2018-07-03T05:07:17.087Z,1.50
2018-07-03T05:09:45.454Z,2.30
2018-07-03T05:12:13.846Z,1.60
2018-07-03T05:14:42.214Z,1.40
2018-07-03T05:17:10.623Z,1.93
2018-07-03T05:19:38.991Z,1.30
2018-07-03T05:22:07.388Z,2.07
2018-07-03T05:24:35.847Z,1.37
2018-07-03T05:27:04.194Z,1.67
2018-07-03T05:29:32.558Z,1.60
2018-07-03T05:32:00.953Z,1.47
2018-07-03T05:34:29.318Z,1.40
2018-07-03T05:36:57.806Z,1.30
2018-07-03T05:39:26.270Z,2.03
2018-07-03T05:41:54.675Z,1.70
2018-07-03T05:44:23.148Z,1.30
2018-07-03T05:46:51.538Z,1.70
2018-07-03T05:49:19.897Z,1.40
2018-07-03T05:51:48.336Z,1.07
2018-07-03T05:54:16.685Z,1.70
2018-07-03T05:56:45.058Z,1.30
2018-07-03T05:59:13.449Z,1.50
2018-07-03T06:01:41.823Z,1.37
2018-07-03T06:04:10.230Z,1.20
2018-07-03T06:06:38.597Z,1.27
2018-07-03T06:09:08.938Z,1.30
2018-07-03T06:11:37.332Z,1.60
2018-07-03T06:14:05.722Z,1.20
2018-07-03T06:16:34.351Z,1.27
2018-07-03T06:19:02.734Z,1.73
2018-07-03T06:21:31.305Z,1.13
2018-07-03T06:23:59.778Z,1.27
2018-07-03T06:26:28.165Z,1.27
2018-07-03T06:28:56.584Z,1.47
2018-07-03T06:31:25.251Z,1.70
2018-07-03T06:33:53.751Z,1.10
2018-07-03T06:36:22.117Z,1.30
2018-07-03T06:38:50.507Z,1.60
2018-07-03T06:41:18.883Z,1.20
2018-07-03T06:43:47.286Z,1.10
2018-07-03T06:46:15.655Z,1.43
2018-07-03T06:48:44.083Z,1.40
2018-07-03T06:51:12.450Z,1.47
2018-07-03T06:53:40.945Z,1.40
2018-07-03T06:56:09.313Z,1.03
2018-07-03T06:58:37.706Z,1.70
2018-07-03T07:01:06.070Z,1.07
2018-07-03T07:03:34.467Z,1.00
2018-07-03T07:06:02.857Z,1.47
2018-07-03T07:08:31.271Z,1.20
2018-07-03T07:10:59.643Z,1.40
2018-07-03T07:13:28.050Z,1.50
2018-07-03T07:15:56.449Z,0.90
2018-07-03T07:18:24.817Z,1.03
2018-07-03T07:20:53.357Z,1.43
2018-07-03T07:23:21.738Z,1.40
2018-07-03T07:25:50.218Z,1.23
2018-07-03T07:28:18.590Z,1.13
2018-07-03T07:30:46.979Z,1.20
2018-07-03T07:33:15.382Z,1.70
2018-07-03T07:35:43.793Z,1.63
2018-07-03T07:38:12.403Z,1.30
2018-07-03T07:40:40.799Z,0.90
2018-07-03T07:43:09.174Z,1.33
2018-07-03T07:45:37.595Z,0.87
2018-07-03T07:48:06.138Z,1.00
2018-07-03T07:50:34.527Z,1.20
2018-07-03T07:53:03.081Z,1.20
2018-07-03T07:55:31.475Z,1.17
2018-07-03T07:57:59.844Z,1.10
2018-07-03T08:00:28.453Z,1.00
2018-07-03T08:02:56.835Z,1.07
2018-07-03T08:05:25.255Z,1.40
2018-07-03T08:07:53.656Z,1.50
2018-07-03T08:10:22.074Z,0.87
2018-07-03T08:12:50.511Z,1.00
2018-07-03T08:15:18.898Z,0.80
2018-07-03T08:17:47.281Z,1.10
2018-07-03T08:20:15.670Z,1.03
2018-07-03T08:22:44.107Z,1.00
2018-07-03T08:25:12.516Z,1.00
2018-07-03T08:27:40.887Z,1.00
2018-07-03T08:30:09.480Z,1.10
2018-07-03T08:32:38.146Z,1.00
2018-07-03T08:35:06.787Z,1.00
2018-07-03T08:37:35.162Z,1.03
2018-07-03T08:40:03.555Z,1.70
2018-07-03T08:42:31.958Z,1.37
2018-07-03T08:45:00.318Z,1.93
2018-07-03T08:47:28.719Z,1.50
2018-07-03T08:49:57.129Z,1.23
2018-07-03T08:52:25.513Z,1.00
2018-07-03T08:54:53.894Z,1.30
2018-07-03T08:57:22.295Z,1.77
2018-07-03T08:59:50.667Z,1.83
2018-07-03T09:02:19.054Z,1.10
2018-07-03T09:04:47.443Z,1.10
2018-07-03T09:07:15.839Z,1.30
2018-07-03T09:09:44.206Z,1.40
2018-07-03T09:12:12.606Z,1.10
2018-07-03T09:14:41.026Z,1.67
2018-07-03T09:17:14.697Z,1.87
2018-07-03T09:19:43.107Z,1.53
2018-07-03T09:22:11.532Z,1.50
2018-07-03T09:24:40.059Z,1.13
2018-07-03T09:27:08.590Z,3.37
2018-07-03T09:29:36.959Z,4.20
2018-07-03T09:32:05.364Z,1.20
2018-07-03T09:34:33.786Z,1.10
2018-07-03T09:37:02.183Z,0.70
2018-07-03T09:39:30.577Z,1.57
2018-07-03T09:41:58.969Z,1.20
2018-07-03T09:44:27.338Z,1.20
2018-07-03T09:46:55.792Z,1.50
2018-07-03T09:49:24.158Z,1.07
2018-07-03T09:51:52.572Z,1.20
2018-07-03T09:54:21.034Z,1.40
2018-07-03T09:56:49.431Z,1.70
2018-07-03T09:59:17.798Z,1.50
2018-07-03T10:01:46.174Z,1.00
2018-07-03T10:04:14.595Z,1.40
2018-07-03T10:06:42.979Z,1.10
2018-07-03T10:09:12.271Z,1.30
2018-07-03T10:11:40.930Z,1.43
2018-07-03T10:14:09.742Z,1.13
2018-07-03T10:16:38.198Z,1.27
2018-07-03T10:19:07.022Z,1.10
2018-07-03T10:21:35.389Z,1.00
2018-07-03T10:24:03.977Z,1.40
2018-07-03T10:26:32.543Z,1.23
2018-07-03T10:29:01.463Z,1.10
2018-07-03T10:31:30.075Z,1.17
2018-07-03T10:33:58.509Z,1.30
2018-07-03T10:36:26.939Z,1.40
2018-07-03T10:38:55.343Z,1.43
2018-07-03T10:41:23.710Z,1.27
2018-07-03T10:43:52.210Z,0.80
2018-07-03T10:46:20.574Z,1.47
2018-07-03T10:48:48.973Z,1.30
2018-07-03T10:51:17.357Z,1.30
2018-07-03T10:53:45.755Z,1.40
2018-07-03T10:56:14.130Z,1.37
2018-07-03T10:58:42.530Z,1.00
2018-07-03T11:01:10.962Z,1.47
2018-07-03T11:03:39.345Z,1.53
2018-07-03T11:06:07.742Z,1.33
2018-07-03T11:08:36.203Z,1.30
2018-07-03T11:11:04.582Z,1.47
2018-07-03T11:13:32.975Z,1.30
2018-07-03T11:16:01.366Z,1.30
2018-07-03T11:18:29.753Z,0.90
2018-07-03T11:20:58.227Z,1.00
2018-07-03T11:23:26.599Z,1.20
2018-07-03T11:25:55.014Z,1.20
2018-07-03T11:28:23.402Z,1.60
2018-07-03T11:30:51.801Z,1.97
2018-07-03T11:33:20.170Z,1.80
2018-07-03T11:35:48.567Z,1.80
2018-07-03T11:38:16.938Z,1.10
2018-07-03T11:40:45.325Z,1.47
2018-07-03T11:43:13.970Z,1.20
2018-07-03T11:45:42.349Z,1.30
2018-07-03T11:48:10.801Z,1.40
2018-07-03T11:50:39.303Z,1.23
2018-07-03T11:53:07.717Z,3.17
2018-07-03T11:55:36.332Z,1.10
2018-07-03T11:58:04.710Z,1.27
2018-07-03T12:00:33.106Z,1.70
2018-07-03T12:03:01.475Z,1.63
2018-07-03T12:05:29.979Z,1.37
2018-07-03T12:07:58.337Z,1.00
2018-07-03T12:10:26.732Z,1.00
2018-07-03T12:12:55.102Z,1.20
2018-07-03T12:15:23.497Z,1.03
2018-07-03T12:17:51.863Z,1.40
2018-07-03T12:20:20.258Z,1.20
2018-07-03T12:22:48.710Z,1.10
2018-07-03T12:25:17.103Z,1.27
2018-07-03T12:27:45.469Z,1.10
2018-07-03T12:30:14.095Z,1.30
2018-07-03T12:32:42.466Z,1.00
2018-07-03T12:35:10.863Z,1.60
2018-07-03T12:37:39.229Z,1.20
2018-07-03T12:40:07.650Z,1.17
2018-07-03T12:42:36.049Z,1.40
2018-07-03T12:45:04.775Z,1.37
2018-07-03T12:47:33.171Z,1.20
2018-07-03T12:50:01.542Z,1.23
2018-07-03T12:52:29.934Z,1.47
2018-07-03T12:54:58.339Z,2.10
2018-07-03T12:57:26.738Z,1.10
2018-07-03T12:59:55.128Z,1.20
2018-07-03T13:02:23.568Z,1.20
2018-07-03T13:04:51.951Z,1.00
2018-07-03T13:07:20.342Z,1.27
2018-07-03T13:09:48.714Z,1.33
2018-07-03T13:12:17.130Z,1.57
2018-07-03T13:14:45.497Z,1.27
2018-07-03T13:17:13.902Z,0.90
2018-07-03T13:19:42.294Z,1.00
2018-07-03T13:22:10.679Z,1.13
2018-07-03T13:24:39.055Z,1.17
2018-07-03T13:27:07.468Z,1.03
2018-07-03T13:29:35.886Z,1.20
2018-07-03T13:32:04.285Z,1.40
2018-07-03T13:34:32.663Z,1.00
2018-07-03T13:37:01.059Z,1.13
2018-07-03T13:39:29.431Z,1.03
2018-07-03T13:41:57.817Z,1.83
2018-07-03T13:44:26.217Z,0.90
2018-07-03T13:46:54.607Z,1.10
2018-07-03T13:49:22.978Z,1.50
2018-07-03T13:51:51.366Z,1.00
2018-07-03T13:54:19.737Z,1.20
2018-07-03T13:56:48.137Z,1.27
2018-07-03T13:59:16.510Z,1.33
2018-07-03T14:01:45.099Z,1.40
2018-07-03T14:04:13.506Z,0.93
2018-07-03T14:06:41.911Z,1.07
2018-07-03T14:09:10.471Z,1.30
2018-07-03T14:11:38.922Z,1.00
2018-07-03T14:14:07.659Z,1.40
2018-07-03T14:16:36.063Z,1.13
2018-07-03T14:19:04.463Z,1.10
2018-07-03T14:21:32.848Z,1.10
2018-07-03T14:24:01.242Z,0.93
2018-07-03T14:26:29.610Z,1.07
2018-07-03T14:28:58.007Z,1.23
2018-07-03T14:31:26.387Z,1.27
2018-07-03T14:33:54.786Z,1.10
2018-07-03T14:36:23.199Z,1.30
2018-07-03T14:38:51.570Z,1.20
2018-07-03T14:41:19.999Z,1.00
2018-07-03T14:43:48.400Z,1.10
2018-07-03T14:46:16.775Z,1.10
2018-07-03T14:48:45.175Z,1.10
2018-07-03T14:51:13.542Z,1.20
2018-07-03T14:53:41.947Z,1.23
2018-07-03T14:56:10.330Z,1.40
2018-07-03T14:58:38.722Z,1.90
2018-07-03T15:01:07.107Z,1.60
2018-07-03T15:03:35.514Z,1.33
2018-07-03T15:06:03.906Z,1.70
2018-07-03T15:08:32.363Z,1.60
2018-07-03T15:11:00.737Z,2.00
2018-07-03T15:13:29.157Z,2.33
2018-07-03T15:15:57.529Z,1.93
2018-07-03T15:18:30.078Z,1.93
2018-07-03T15:20:58.448Z,3.03
2018-07-03T15:23:26.862Z,2.17
2018-07-03T15:25:55.244Z,1.77
2018-07-03T15:28:23.699Z,1.70
2018-07-03T15:30:52.074Z,1.63
2018-07-03T15:33:20.448Z,1.80
2018-07-03T15:35:48.852Z,1.57
2018-07-03T15:38:17.229Z,1.47
2018-07-03T15:40:45.623Z,1.70
2018-07-03T15:43:14.007Z,1.40
2018-07-03T15:45:42.401Z,1.67
2018-07-03T15:48:10.769Z,1.33
2018-07-03T15:50:39.162Z,1.60
2018-07-03T15:53:07.529Z,1.50
2018-07-03T15:55:35.925Z,1.50
2018-07-03T15:58:04.319Z,1.37
2018-07-03T16:00:32.741Z,1.40
2018-07-03T16:03:12.378Z,1.73
2018-07-03T16:05:57.649Z,1.40
2018-07-03T16:09:07.018Z,1.73
2018-07-03T16:11:35.417Z,1.60
2018-07-03T16:14:03.832Z,1.33
2018-07-03T16:16:32.382Z,1.73
2018-07-03T16:19:06.143Z,1.50
2018-07-03T16:21:34.533Z,1.47
2018-07-03T16:24:02.907Z,1.40
2018-07-03T16:26:31.298Z,1.80
2018-07-03T16:28:59.679Z,1.70
2018-07-03T16:31:28.085Z,1.80
2018-07-03T16:33:57.263Z,1.60
2018-07-03T16:36:25.862Z,1.60
2018-07-03T16:38:54.324Z,1.43
2018-07-03T16:41:22.745Z,1.60
2018-07-03T16:43:51.114Z,1.70
2018-07-03T16:46:19.511Z,1.50
2018-07-03T16:48:47.883Z,1.33
2018-07-03T16:51:16.399Z,1.70
2018-07-03T16:53:44.788Z,1.43
2018-07-03T16:56:13.170Z,1.60
2018-07-03T16:58:41.597Z,1.10
2018-07-03T17:01:10.526Z,2.23
2018-07-03T17:03:39.067Z,0.90
2018-07-03T17:06:07.726Z,5.23
2018-07-03T17:08:36.247Z,1.30
2018-07-03T17:11:05.109Z,1.37
2018-07-03T17:13:33.533Z,1.13
2018-07-03T17:16:01.942Z,1.53
2018-07-03T17:18:31.799Z,1.60
2018-07-03T17:21:00.206Z,1.67
2018-07-03T17:23:28.859Z,1.27
2018-07-03T17:25:57.422Z,1.00
2018-07-03T17:28:26.239Z,1.50
2018-07-03T17:30:54.618Z,1.70
2018-07-03T17:33:23.022Z,1.27
2018-07-03T17:35:51.423Z,1.37
2018-07-03T17:38:19.865Z,1.50
2018-07-03T17:40:59.856Z,1.30
2018-07-03T17:44:10.270Z,1.13
2018-07-03T17:46:38.714Z,1.17
2018-07-03T17:49:07.436Z,1.30
2018-07-03T17:51:36.086Z,1.17
2018-07-03T17:54:04.607Z,1.17
2018-07-03T17:56:32.990Z,1.20
2018-07-03T17:59:01.582Z,1.20
2018-07-03T18:01:29.998Z,1.10
2018-07-03T18:03:58.421Z,1.57
2018-07-03T18:06:26.798Z,1.30
2018-07-03T18:08:55.220Z,1.30
2018-07-03T18:11:23.595Z,1.87
2018-07-03T18:13:51.990Z,1.40
2018-07-03T18:16:20.617Z,1.80
2018-07-03T18:18:54.422Z,1.30
2018-07-03T18:21:22.858Z,1.27
2018-07-03T18:23:51.521Z,1.13
2018-07-03T18:26:20.031Z,1.77
2018-07-03T18:28:48.434Z,1.33
2018-07-03T18:31:17.077Z,2.00
2018-07-03T18:33:45.682Z,1.77
2018-07-03T18:36:14.083Z,1.83
2018-07-03T18:38:42.562Z,1.70
2018-07-03T18:41:10.960Z,1.90
2018-07-03T18:43:39.488Z,2.23
2018-07-03T18:46:07.909Z,1.80
2018-07-03T18:48:36.487Z,3.00
2018-07-03T18:51:04.909Z,3.63
2018-07-03T18:53:33.339Z,2.57
2018-07-03T18:56:01.936Z,2.00
2018-07-03T18:58:30.374Z,2.10
2018-07-03T19:00:58.830Z,2.27
2018-07-03T19:03:27.486Z,2.23
2018-07-03T19:05:55.966Z,1.83
2018-07-03T19:08:24.475Z,2.10
2018-07-03T19:10:53.128Z,2.47
2018-07-03T19:13:21.613Z,3.10
2018-07-03T19:15:50.017Z,1.73
2018-07-03T19:18:18.473Z,2.47
2018-07-03T19:20:47.105Z,2.23
2018-07-03T19:23:15.541Z,2.60
2018-07-03T19:25:44.115Z,3.00
2018-07-03T19:28:12.704Z,2.50
2018-07-03T19:30:41.130Z,2.80
2018-07-03T19:33:09.564Z,2.80
2018-07-03T19:35:38.066Z,2.67
2018-07-03T19:38:06.631Z,3.13
2018-07-03T19:40:35.113Z,3.10
2018-07-03T19:43:22.762Z,2.70
2018-07-03T19:45:52.078Z,3.07
2018-07-03T19:48:20.650Z,2.90
2018-07-03T19:50:50.696Z,2.77
2018-07-03T19:53:19.194Z,3.77
2018-07-03T19:55:48.697Z,2.77
2018-07-03T19:58:17.646Z,2.63
2018-07-03T20:00:46.439Z,2.17
2018-07-03T20:03:14.953Z,3.00
2018-07-03T20:05:43.502Z,3.40
2018-07-03T20:08:12.003Z,2.40
2018-07-03T20:10:41.467Z,2.70
2018-07-03T20:13:12.167Z,2.60
2018-07-03T20:15:40.553Z,4.93
2018-07-03T20:18:10.305Z,3.33
2018-07-03T20:20:38.710Z,2.30
2018-07-03T20:23:07.119Z,3.03
2018-07-03T20:25:36.258Z,3.50
2018-07-03T20:28:04.774Z,4.23
2018-07-03T20:30:33.212Z,3.83
2018-07-03T20:33:01.594Z,3.60
2018-07-03T20:35:29.978Z,4.20
2018-07-03T20:38:00.534Z,3.80
2018-07-03T20:40:33.941Z,3.30
2018-07-03T20:43:02.480Z,3.30
2018-07-03T20:45:30.858Z,3.50
2018-07-03T20:47:59.255Z,3.83
2018-07-03T20:50:27.618Z,2.90
2018-07-03T20:52:56.019Z,3.30
2018-07-03T20:55:26.042Z,3.30
2018-07-03T20:57:54.464Z,4.30
2018-07-03T21:00:22.834Z,3.30
2018-07-03T21:02:51.227Z,3.20
2018-07-03T21:05:19.617Z,2.97
2018-07-03T21:07:47.997Z,4.60
2018-07-03T21:10:16.371Z,4.07
2018-07-03T21:12:44.774Z,3.70
2018-07-03T21:15:13.149Z,3.70
2018-07-03T21:17:41.515Z,3.60
2018-07-03T21:20:09.910Z,3.40
2018-07-03T21:22:38.282Z,4.30
2018-07-03T21:25:06.670Z,3.80
2018-07-03T21:27:35.045Z,4.03
2018-07-03T21:30:03.442Z,4.10
2018-07-03T21:32:31.884Z,3.43
2018-07-03T21:35:00.273Z,3.20
2018-07-03T21:37:28.639Z,3.77
2018-07-03T21:39:57.032Z,3.20
2018-07-03T21:42:25.404Z,3.70
2018-07-03T21:44:53.797Z,3.63
2018-07-03T21:47:22.167Z,4.10
2018-07-03T21:49:50.562Z,4.20
2018-07-03T21:52:18.926Z,4.50
2018-07-03T21:54:47.319Z,4.67
2018-07-03T21:57:15.682Z,4.40
2018-07-03T21:59:44.081Z,4.10
2018-07-03T22:02:12.446Z,4.87
2018-07-03T22:04:41.083Z,6.30
2018-07-03T22:07:09.491Z,7.33
2018-07-03T22:09:37.887Z,7.50
2018-07-03T22:12:06.283Z,7.93
2018-07-03T22:14:37.581Z,8.50
2018-07-03T22:17:06.477Z,7.90
2018-07-03T22:19:34.870Z,7.70
2018-07-03T22:22:03.243Z,8.50
2018-07-03T22:24:31.797Z,9.80
2018-07-03T22:27:00.186Z,9.27
2018-07-03T22:29:28.590Z,10.20
2018-07-03T22:31:56.963Z,9.77
2018-07-03T22:34:25.625Z,8.80
2018-07-03T22:36:54.181Z,8.63
2018-07-03T22:39:22.609Z,7.90
2018-07-03T22:41:50.985Z,7.70
2018-07-03T22:44:19.385Z,7.00
2018-07-03T22:46:47.791Z,7.30
2018-07-03T22:49:16.162Z,6.50
2018-07-03T22:51:44.550Z,6.63
2018-07-03T22:54:12.925Z,5.57
2018-07-03T22:56:41.452Z,4.53
2018-07-03T22:59:09.838Z,5.73
2018-07-03T23:01:38.232Z,5.77
2018-07-03T23:04:06.651Z,5.77
2018-07-03T23:06:35.038Z,5.57
2018-07-03T23:09:03.647Z,6.33
2018-07-03T23:11:32.029Z,7.07
2018-07-03T23:14:00.445Z,6.10
2018-07-03T23:16:28.840Z,6.17
2018-07-03T23:18:57.211Z,6.10
2018-07-03T23:21:25.603Z,5.20
2018-07-03T23:23:53.966Z,5.77
2018-07-03T23:26:22.361Z,5.90
2018-07-03T23:28:51.060Z,6.07
2018-07-03T23:31:19.626Z,6.10
2018-07-03T23:33:47.973Z,6.20
2018-07-03T23:36:16.366Z,5.97
2018-07-03T23:38:44.746Z,5.93
2018-07-03T23:41:13.143Z,5.60
2018-07-03T23:43:41.518Z,5.50
2018-07-03T23:46:08.850Z,5.50
2018-07-03T23:48:48.527Z,6.00
2018-07-03T23:51:28.289Z,5.40
2018-07-03T23:54:08.015Z,6.10
2018-07-03T23:56:47.801Z,5.93
2018-07-03T23:59:27.515Z,6.43
